sensor_id;sensor_type;location;lat;lon;timestamp;pressure;altitude;pressure_sealevel;temperature;humidity
76730;BME280;65653;53.106;18.046;2024-01-11T00:01:19;101927.97;;;-4.26;100.00
76730;BME280;65653;53.106;18.046;2024-01-11T00:03:46;101934.55;;;-4.24;100.00
76730;BME280;65653;53.106;18.046;2024-01-11T00:06:12;101942.03;;;-4.22;100.00
76730;BME280;65653;53.106;18.046;2024-01-11T00:08:39;101938.60;;;-4.19;100.00
76730;BME280;65653;53.106;18.046;2024-01-11T00:11:05;101930.02;;;-4.17;100.00
76730;BME280;65653;53.106;18.046;2024-01-11T00:13:32;101926.27;;;-4.14;100.00
76730;BME280;65653;53.106;18.046;2024-01-11T00:15:59;101933.81;;;-4.11;100.00
76730;BME280;65653;53.106;18.046;2024-01-11T00:18:25;101925.23;;;-4.09;100.00
76730;BME280;65653;53.106;18.046;2024-01-11T00:20:52;101918.11;;;-4.07;100.00
76730;BME280;65653;53.106;18.046;2024-01-11T00:23:18;101906.28;;;-4.05;100.00
76730;BME280;65653;53.106;18.046;2024-01-11T00:25:45;101916.14;;;-4.04;100.00
76730;BME280;65653;53.106;18.046;2024-01-11T00:28:11;101911.35;;;-4.02;100.00
76730;BME280;65653;53.106;18.046;2024-01-11T00:30:38;101907.86;;;-4.01;100.00
76730;BME280;65653;53.106;18.046;2024-01-11T00:33:04;101915.70;;;-4.00;100.00
76730;BME280;65653;53.106;18.046;2024-01-11T00:35:31;101908.94;;;-3.98;100.00
76730;BME280;65653;53.106;18.046;2024-01-11T00:37:57;101900.70;;;-3.96;100.00
76730;BME280;65653;53.106;18.046;2024-01-11T00:40:24;101887.43;;;-3.94;100.00
76730;BME280;65653;53.106;18.046;2024-01-11T00:42:50;101883.73;;;-3.92;100.00
76730;BME280;65653;53.106;18.046;2024-01-11T00:45:17;101878.94;;;-3.90;100.00
76730;BME280;65653;53.106;18.046;2024-01-11T00:47:44;101865.25;;;-3.91;100.00
76730;BME280;65653;53.106;18.046;2024-01-11T00:50:10;101854.40;;;-3.90;100.00
76730;BME280;65653;53.106;18.046;2024-01-11T00:52:37;101859.30;;;-3.90;100.00
76730;BME280;65653;53.106;18.046;2024-01-11T00:55:05;101865.34;;;-3.89;100.00
76730;BME280;65653;53.106;18.046;2024-01-11T00:57:32;101869.42;;;-3.88;100.00
76730;BME280;65653;53.106;18.046;2024-01-11T00:59:58;101874.80;;;-3.88;100.00
76730;BME280;65653;53.106;18.046;2024-01-11T01:02:25;101872.63;;;-3.87;100.00
76730;BME280;65653;53.106;18.046;2024-01-11T01:04:51;101865.17;;;-3.86;100.00
76730;BME280;65653;53.106;18.046;2024-01-11T01:07:17;101865.16;;;-3.86;100.00
76730;BME280;65653;53.106;18.046;2024-01-11T01:09:44;101871.09;;;-3.85;100.00
76730;BME280;65653;53.106;18.046;2024-01-11T01:12:11;101875.20;;;-3.85;100.00
76730;BME280;65653;53.106;18.046;2024-01-11T01:14:37;101883.27;;;-3.84;100.00
76730;BME280;65653;53.106;18.046;2024-01-11T01:17:04;101879.95;;;-3.83;100.00
76730;BME280;65653;53.106;18.046;2024-01-11T01:19:31;101877.58;;;-3.82;100.00
76730;BME280;65653;53.106;18.046;2024-01-11T01:21:58;101867.79;;;-3.81;100.00
76730;BME280;65653;53.106;18.046;2024-01-11T01:24:25;101860.36;;;-3.81;100.00
76730;BME280;65653;53.106;18.046;2024-01-11T01:26:51;101868.29;;;-3.81;100.00
76730;BME280;65653;53.106;18.046;2024-01-11T01:29:18;101880.27;;;-3.79;100.00
76730;BME280;65653;53.106;18.046;2024-01-11T01:31:44;101887.25;;;-3.78;100.00
76730;BME280;65653;53.106;18.046;2024-01-11T01:34:11;101888.74;;;-3.76;100.00
76730;BME280;65653;53.106;18.046;2024-01-11T01:36:37;101874.98;;;-3.75;100.00
76730;BME280;65653;53.106;18.046;2024-01-11T01:39:04;101871.44;;;-3.76;100.00
76730;BME280;65653;53.106;18.046;2024-01-11T01:41:30;101864.77;;;-3.76;100.00
76730;BME280;65653;53.106;18.046;2024-01-11T01:43:56;101867.73;;;-3.74;100.00
76730;BME280;65653;53.106;18.046;2024-01-11T01:46:23;101881.34;;;-3.72;100.00
76730;BME280;65653;53.106;18.046;2024-01-11T01:48:53;101887.08;;;-3.68;100.00
76730;BME280;65653;53.106;18.046;2024-01-11T01:51:22;101890.89;;;-3.65;100.00
76730;BME280;65653;53.106;18.046;2024-01-11T01:53:51;101882.02;;;-3.62;100.00
76730;BME280;65653;53.106;18.046;2024-01-11T01:56:19;101890.23;;;-3.57;100.00
76730;BME280;65653;53.106;18.046;2024-01-11T01:58:47;101895.61;;;-3.53;100.00
76730;BME280;65653;53.106;18.046;2024-01-11T02:01:15;101903.44;;;-3.48;100.00
76730;BME280;65653;53.106;18.046;2024-01-11T02:03:43;101899.32;;;-3.42;100.00
76730;BME280;65653;53.106;18.046;2024-01-11T02:06:09;101892.70;;;-3.37;100.00
76730;BME280;65653;53.106;18.046;2024-01-11T02:08:36;101886.52;;;-3.33;100.00
76730;BME280;65653;53.106;18.046;2024-01-11T02:11:03;101890.70;;;-3.28;100.00
76730;BME280;65653;53.106;18.046;2024-01-11T02:13:31;101890.95;;;-3.23;100.00
76730;BME280;65653;53.106;18.046;2024-01-11T02:15:58;101892.52;;;-3.19;100.00
76730;BME280;65653;53.106;18.046;2024-01-11T02:18:24;101884.48;;;-3.14;100.00
76730;BME280;65653;53.106;18.046;2024-01-11T02:20:51;101883.98;;;-3.09;100.00
76730;BME280;65653;53.106;18.046;2024-01-11T02:23:19;101881.56;;;-3.05;100.00
76730;BME280;65653;53.106;18.046;2024-01-11T02:25:47;101881.52;;;-3.01;100.00
76730;BME280;65653;53.106;18.046;2024-01-11T02:28:14;101881.98;;;-2.97;100.00
76730;BME280;65653;53.106;18.046;2024-01-11T02:30:40;101881.09;;;-2.94;100.00
76730;BME280;65653;53.106;18.046;2024-01-11T02:33:06;101871.75;;;-2.92;100.00
76730;BME280;65653;53.106;18.046;2024-01-11T02:35:34;101863.95;;;-2.88;100.00
76730;BME280;65653;53.106;18.046;2024-01-11T02:38:01;101856.06;;;-2.86;100.00
76730;BME280;65653;53.106;18.046;2024-01-11T02:40:29;101849.81;;;-2.84;100.00
76730;BME280;65653;53.106;18.046;2024-01-11T02:42:55;101839.48;;;-2.81;100.00
76730;BME280;65653;53.106;18.046;2024-01-11T02:45:22;101841.47;;;-2.78;100.00
76730;BME280;65653;53.106;18.046;2024-01-11T02:47:48;101846.23;;;-2.73;100.00
76730;BME280;65653;53.106;18.046;2024-01-11T02:50:15;101841.95;;;-2.68;100.00
76730;BME280;65653;53.106;18.046;2024-01-11T02:52:42;101845.23;;;-2.63;100.00
76730;BME280;65653;53.106;18.046;2024-01-11T02:55:08;101840.02;;;-2.57;100.00
76730;BME280;65653;53.106;18.046;2024-01-11T02:57:35;101830.54;;;-2.54;100.00
76730;BME280;65653;53.106;18.046;2024-01-11T03:00:02;101822.89;;;-2.50;100.00
76730;BME280;65653;53.106;18.046;2024-01-11T03:02:29;101820.86;;;-2.43;100.00
76730;BME280;65653;53.106;18.046;2024-01-11T03:04:56;101820.02;;;-2.39;100.00
76730;BME280;65653;53.106;18.046;2024-01-11T03:07:22;101810.37;;;-2.35;100.00
76730;BME280;65653;53.106;18.046;2024-01-11T03:09:48;101804.84;;;-2.30;100.00
76730;BME280;65653;53.106;18.046;2024-01-11T03:12:15;101802.24;;;-2.27;100.00
76730;BME280;65653;53.106;18.046;2024-01-11T03:14:41;101805.14;;;-2.24;100.00
76730;BME280;65653;53.106;18.046;2024-01-11T03:17:08;101795.73;;;-2.21;100.00
76730;BME280;65653;53.106;18.046;2024-01-11T03:19:39;101777.05;;;-2.20;100.00
76730;BME280;65653;53.106;18.046;2024-01-11T03:22:07;101774.20;;;-2.21;100.00
76730;BME280;65653;53.106;18.046;2024-01-11T03:24:37;101766.84;;;-2.19;100.00
76730;BME280;65653;53.106;18.046;2024-01-11T03:27:08;101762.70;;;-2.20;100.00
76730;BME280;65653;53.106;18.046;2024-01-11T03:29:34;101758.16;;;-2.19;100.00
76730;BME280;65653;53.106;18.046;2024-01-11T03:32:01;101760.31;;;-2.19;100.00
76730;BME280;65653;53.106;18.046;2024-01-11T03:34:27;101759.08;;;-2.16;100.00
76730;BME280;65653;53.106;18.046;2024-01-11T03:36:54;101766.58;;;-2.12;100.00
76730;BME280;65653;53.106;18.046;2024-01-11T03:39:20;101768.77;;;-2.07;100.00
76730;BME280;65653;53.106;18.046;2024-01-11T03:41:47;101773.17;;;-2.02;100.00
76730;BME280;65653;53.106;18.046;2024-01-11T03:44:13;101777.42;;;-1.98;100.00
76730;BME280;65653;53.106;18.046;2024-01-11T03:46:40;101774.71;;;-1.92;100.00
76730;BME280;65653;53.106;18.046;2024-01-11T03:49:07;101766.35;;;-1.89;100.00
76730;BME280;65653;53.106;18.046;2024-01-11T03:51:34;101758.02;;;-1.86;100.00
76730;BME280;65653;53.106;18.046;2024-01-11T03:54:01;101752.67;;;-1.82;100.00
76730;BME280;65653;53.106;18.046;2024-01-11T03:56:27;101741.79;;;-1.79;100.00
76730;BME280;65653;53.106;18.046;2024-01-11T03:58:54;101734.60;;;-1.77;100.00
76730;BME280;65653;53.106;18.046;2024-01-11T04:01:20;101733.53;;;-1.75;100.00
76730;BME280;65653;53.106;18.046;2024-01-11T04:03:47;101735.20;;;-1.73;100.00
76730;BME280;65653;53.106;18.046;2024-01-11T04:06:23;101732.93;;;-1.71;100.00
76730;BME280;65653;53.106;18.046;2024-01-11T04:08:50;101725.37;;;-1.69;100.00
76730;BME280;65653;53.106;18.046;2024-01-11T04:11:17;101706.61;;;-1.68;100.00
76730;BME280;65653;53.106;18.046;2024-01-11T04:13:43;101694.23;;;-1.67;100.00
76730;BME280;65653;53.106;18.046;2024-01-11T04:16:10;101678.59;;;-1.66;100.00
76730;BME280;65653;53.106;18.046;2024-01-11T04:18:36;101673.02;;;-1.64;100.00
76730;BME280;65653;53.106;18.046;2024-01-11T04:21:03;101665.57;;;-1.63;100.00
76730;BME280;65653;53.106;18.046;2024-01-11T04:23:30;101660.48;;;-1.63;100.00
76730;BME280;65653;53.106;18.046;2024-01-11T04:25:56;101662.00;;;-1.62;100.00
76730;BME280;65653;53.106;18.046;2024-01-11T04:28:23;101674.86;;;-1.61;100.00
76730;BME280;65653;53.106;18.046;2024-01-11T04:30:49;101684.15;;;-1.60;100.00
76730;BME280;65653;53.106;18.046;2024-01-11T04:33:16;101681.14;;;-1.58;100.00
76730;BME280;65653;53.106;18.046;2024-01-11T04:35:42;101684.25;;;-1.56;100.00
76730;BME280;65653;53.106;18.046;2024-01-11T04:38:09;101677.60;;;-1.54;100.00
76730;BME280;65653;53.106;18.046;2024-01-11T04:40:35;101662.17;;;-1.54;100.00
76730;BME280;65653;53.106;18.046;2024-01-11T04:43:01;101656.69;;;-1.52;100.00
76730;BME280;65653;53.106;18.046;2024-01-11T04:45:28;101665.42;;;-1.51;100.00
76730;BME280;65653;53.106;18.046;2024-01-11T04:47:55;101673.13;;;-1.49;100.00
76730;BME280;65653;53.106;18.046;2024-01-11T04:50:21;101677.08;;;-1.49;100.00
76730;BME280;65653;53.106;18.046;2024-01-11T04:52:48;101668.83;;;-1.48;100.00
76730;BME280;65653;53.106;18.046;2024-01-11T04:55:14;101669.64;;;-1.46;100.00
76730;BME280;65653;53.106;18.046;2024-01-11T04:57:41;101675.91;;;-1.45;100.00
76730;BME280;65653;53.106;18.046;2024-01-11T05:00:07;101665.38;;;-1.45;100.00
76730;BME280;65653;53.106;18.046;2024-01-11T05:02:34;101659.84;;;-1.43;100.00
76730;BME280;65653;53.106;18.046;2024-01-11T05:05:01;101662.58;;;-1.41;100.00
76730;BME280;65653;53.106;18.046;2024-01-11T05:07:27;101661.23;;;-1.39;100.00
76730;BME280;65653;53.106;18.046;2024-01-11T05:09:54;101671.10;;;-1.38;100.00
76730;BME280;65653;53.106;18.046;2024-01-11T05:12:20;101676.04;;;-1.36;100.00
76730;BME280;65653;53.106;18.046;2024-01-11T05:14:47;101671.21;;;-1.35;100.00
76730;BME280;65653;53.106;18.046;2024-01-11T05:17:13;101668.30;;;-1.32;100.00
76730;BME280;65653;53.106;18.046;2024-01-11T05:19:39;101660.38;;;-1.30;100.00
76730;BME280;65653;53.106;18.046;2024-01-11T05:22:06;101658.11;;;-1.29;100.00
76730;BME280;65653;53.106;18.046;2024-01-11T05:24:32;101663.60;;;-1.27;100.00
76730;BME280;65653;53.106;18.046;2024-01-11T05:26:59;101669.27;;;-1.25;100.00
76730;BME280;65653;53.106;18.046;2024-01-11T05:29:26;101662.29;;;-1.24;100.00
76730;BME280;65653;53.106;18.046;2024-01-11T05:31:53;101659.30;;;-1.23;100.00
76730;BME280;65653;53.106;18.046;2024-01-11T05:34:19;101662.58;;;-1.20;100.00
76730;BME280;65653;53.106;18.046;2024-01-11T05:36:46;101660.34;;;-1.19;100.00
76730;BME280;65653;53.106;18.046;2024-01-11T05:39:13;101659.23;;;-1.17;100.00
76730;BME280;65653;53.106;18.046;2024-01-11T05:41:43;101673.11;;;-1.16;100.00
76730;BME280;65653;53.106;18.046;2024-01-11T05:44:10;101668.98;;;-1.13;100.00
76730;BME280;65653;53.106;18.046;2024-01-11T05:46:37;101653.08;;;-1.11;100.00
76730;BME280;65653;53.106;18.046;2024-01-11T05:49:03;101663.42;;;-1.09;100.00
76730;BME280;65653;53.106;18.046;2024-01-11T05:51:30;101652.48;;;-1.08;100.00
76730;BME280;65653;53.106;18.046;2024-01-11T05:53:56;101657.13;;;-1.07;100.00
76730;BME280;65653;53.106;18.046;2024-01-11T05:56:22;101662.10;;;-1.06;100.00
76730;BME280;65653;53.106;18.046;2024-01-11T05:58:49;101649.89;;;-1.05;100.00
76730;BME280;65653;53.106;18.046;2024-01-11T06:01:16;101639.21;;;-1.03;100.00
76730;BME280;65653;53.106;18.046;2024-01-11T06:03:43;101636.26;;;-1.02;100.00
76730;BME280;65653;53.106;18.046;2024-01-11T06:06:09;101630.34;;;-1.00;100.00
76730;BME280;65653;53.106;18.046;2024-01-11T06:08:36;101621.80;;;-1.00;100.00
76730;BME280;65653;53.106;18.046;2024-01-11T06:11:03;101622.27;;;-0.99;100.00
76730;BME280;65653;53.106;18.046;2024-01-11T06:13:30;101624.71;;;-0.98;100.00
76730;BME280;65653;53.106;18.046;2024-01-11T06:15:57;101629.73;;;-0.97;100.00
76730;BME280;65653;53.106;18.046;2024-01-11T06:18:23;101638.48;;;-0.95;100.00
76730;BME280;65653;53.106;18.046;2024-01-11T06:20:50;101635.48;;;-0.94;100.00
76730;BME280;65653;53.106;18.046;2024-01-11T06:23:16;101625.23;;;-0.92;100.00
76730;BME280;65653;53.106;18.046;2024-01-11T06:25:43;101619.92;;;-0.92;100.00
76730;BME280;65653;53.106;18.046;2024-01-11T06:28:11;101622.55;;;-0.90;100.00
76730;BME280;65653;53.106;18.046;2024-01-11T06:30:38;101623.73;;;-0.89;100.00
76730;BME280;65653;53.106;18.046;2024-01-11T06:33:04;101622.02;;;-0.88;100.00
76730;BME280;65653;53.106;18.046;2024-01-11T06:35:31;101623.95;;;-0.87;100.00
76730;BME280;65653;53.106;18.046;2024-01-11T06:37:57;101632.17;;;-0.86;100.00
76730;BME280;65653;53.106;18.046;2024-01-11T06:40:24;101634.60;;;-0.84;100.00
76730;BME280;65653;53.106;18.046;2024-01-11T06:42:50;101632.31;;;-0.83;100.00
76730;BME280;65653;53.106;18.046;2024-01-11T06:45:17;101631.66;;;-0.81;100.00
76730;BME280;65653;53.106;18.046;2024-01-11T06:47:43;101621.58;;;-0.80;100.00
76730;BME280;65653;53.106;18.046;2024-01-11T06:50:12;101618.98;;;-0.79;100.00
76730;BME280;65653;53.106;18.046;2024-01-11T06:52:39;101622.63;;;-0.77;100.00
76730;BME280;65653;53.106;18.046;2024-01-11T06:55:06;101618.59;;;-0.76;100.00
76730;BME280;65653;53.106;18.046;2024-01-11T06:57:33;101614.90;;;-0.75;100.00
76730;BME280;65653;53.106;18.046;2024-01-11T06:59:59;101606.48;;;-0.74;100.00
76730;BME280;65653;53.106;18.046;2024-01-11T07:02:26;101615.97;;;-0.72;100.00
76730;BME280;65653;53.106;18.046;2024-01-11T07:04:52;101617.40;;;-0.72;100.00
76730;BME280;65653;53.106;18.046;2024-01-11T07:07:19;101614.47;;;-0.72;100.00
76730;BME280;65653;53.106;18.046;2024-01-11T07:09:46;101613.27;;;-0.71;100.00
76730;BME280;65653;53.106;18.046;2024-01-11T07:12:12;101624.66;;;-0.69;100.00
76730;BME280;65653;53.106;18.046;2024-01-11T07:14:39;101624.74;;;-0.68;100.00
76730;BME280;65653;53.106;18.046;2024-01-11T07:17:05;101621.07;;;-0.67;100.00
76730;BME280;65653;53.106;18.046;2024-01-11T07:19:31;101623.88;;;-0.66;100.00
76730;BME280;65653;53.106;18.046;2024-01-11T07:21:58;101623.45;;;-0.65;100.00
76730;BME280;65653;53.106;18.046;2024-01-11T07:24:25;101620.16;;;-0.65;100.00
76730;BME280;65653;53.106;18.046;2024-01-11T07:26:51;101609.95;;;-0.64;100.00
76730;BME280;65653;53.106;18.046;2024-01-11T07:29:17;101599.15;;;-0.63;100.00
76730;BME280;65653;53.106;18.046;2024-01-11T07:31:44;101605.48;;;-0.61;100.00
76730;BME280;65653;53.106;18.046;2024-01-11T07:34:11;101599.38;;;-0.59;100.00
76730;BME280;65653;53.106;18.046;2024-01-11T07:36:37;101592.05;;;-0.55;100.00
76730;BME280;65653;53.106;18.046;2024-01-11T07:39:04;101595.94;;;-0.54;100.00
76730;BME280;65653;53.106;18.046;2024-01-11T07:41:30;101588.93;;;-0.52;100.00
76730;BME280;65653;53.106;18.046;2024-01-11T07:43:57;101579.40;;;-0.51;100.00
76730;BME280;65653;53.106;18.046;2024-01-11T07:46:26;101580.46;;;-0.51;100.00
76730;BME280;65653;53.106;18.046;2024-01-11T07:48:52;101583.84;;;-0.50;100.00
76730;BME280;65653;53.106;18.046;2024-01-11T07:51:18;101584.06;;;-0.48;100.00
76730;BME280;65653;53.106;18.046;2024-01-11T07:53:46;101586.18;;;-0.47;100.00
76730;BME280;65653;53.106;18.046;2024-01-11T07:56:13;101587.92;;;-0.46;100.00
76730;BME280;65653;53.106;18.046;2024-01-11T07:58:40;101590.05;;;-0.46;100.00
76730;BME280;65653;53.106;18.046;2024-01-11T08:01:09;101599.88;;;-0.44;100.00
76730;BME280;65653;53.106;18.046;2024-01-11T08:03:35;101597.06;;;-0.42;100.00
76730;BME280;65653;53.106;18.046;2024-01-11T08:06:05;101599.66;;;-0.41;100.00
76730;BME280;65653;53.106;18.046;2024-01-11T08:08:34;101599.45;;;-0.38;100.00
76730;BME280;65653;53.106;18.046;2024-01-11T08:11:01;101597.10;;;-0.35;100.00
76730;BME280;65653;53.106;18.046;2024-01-11T08:13:27;101598.39;;;-0.31;100.00
76730;BME280;65653;53.106;18.046;2024-01-11T08:15:55;101599.20;;;-0.28;100.00
76730;BME280;65653;53.106;18.046;2024-01-11T08:18:21;101603.63;;;-0.24;100.00
76730;BME280;65653;53.106;18.046;2024-01-11T08:20:48;101597.34;;;-0.20;100.00
76730;BME280;65653;53.106;18.046;2024-01-11T08:23:15;101602.66;;;-0.16;100.00
76730;BME280;65653;53.106;18.046;2024-01-11T08:25:41;101610.52;;;-0.11;100.00
76730;BME280;65653;53.106;18.046;2024-01-11T08:28:08;101619.13;;;-0.08;100.00
76730;BME280;65653;53.106;18.046;2024-01-11T08:30:35;101617.75;;;-0.04;100.00
76730;BME280;65653;53.106;18.046;2024-01-11T08:33:06;101612.57;;;-0.01;100.00
76730;BME280;65653;53.106;18.046;2024-01-11T08:35:33;101591.34;;;0.02;100.00
76730;BME280;65653;53.106;18.046;2024-01-11T08:37:59;101586.71;;;0.06;100.00
76730;BME280;65653;53.106;18.046;2024-01-11T08:40:26;101599.30;;;0.12;100.00
76730;BME280;65653;53.106;18.046;2024-01-11T08:42:53;101598.22;;;0.17;100.00
76730;BME280;65653;53.106;18.046;2024-01-11T08:45:32;101603.45;;;0.19;100.00
76730;BME280;65653;53.106;18.046;2024-01-11T08:48:04;101601.66;;;0.23;100.00
76730;BME280;65653;53.106;18.046;2024-01-11T08:50:31;101609.20;;;0.27;100.00
76730;BME280;65653;53.106;18.046;2024-01-11T08:52:59;101608.70;;;0.31;100.00
76730;BME280;65653;53.106;18.046;2024-01-11T08:55:26;101612.44;;;0.34;100.00
76730;BME280;65653;53.106;18.046;2024-01-11T08:57:53;101617.58;;;0.38;100.00
76730;BME280;65653;53.106;18.046;2024-01-11T09:00:21;101618.09;;;0.41;100.00
76730;BME280;65653;53.106;18.046;2024-01-11T09:02:48;101621.33;;;0.44;100.00
76730;BME280;65653;53.106;18.046;2024-01-11T09:05:17;101629.42;;;0.47;100.00
76730;BME280;65653;53.106;18.046;2024-01-11T09:07:46;101631.62;;;0.51;100.00
76730;BME280;65653;53.106;18.046;2024-01-11T09:10:27;101637.11;;;0.56;100.00
76730;BME280;65653;53.106;18.046;2024-01-11T09:12:54;101639.75;;;0.59;100.00
76730;BME280;65653;53.106;18.046;2024-01-11T09:15:21;101643.48;;;0.59;100.00
76730;BME280;65653;53.106;18.046;2024-01-11T09:17:48;101640.79;;;0.62;100.00
76730;BME280;65653;53.106;18.046;2024-01-11T09:20:15;101640.46;;;0.64;100.00
76730;BME280;65653;53.106;18.046;2024-01-11T09:22:42;101633.40;;;0.63;100.00
76730;BME280;65653;53.106;18.046;2024-01-11T09:25:22;101633.54;;;0.69;100.00
76730;BME280;65653;53.106;18.046;2024-01-11T09:27:58;101636.64;;;0.71;100.00
76730;BME280;65653;53.106;18.046;2024-01-11T09:30:25;101637.51;;;0.74;100.00
76730;BME280;65653;53.106;18.046;2024-01-11T09:32:57;101636.03;;;0.76;100.00
76730;BME280;65653;53.106;18.046;2024-01-11T09:35:23;101626.70;;;0.77;100.00
76730;BME280;65653;53.106;18.046;2024-01-11T09:37:50;101634.42;;;0.80;100.00
76730;BME280;65653;53.106;18.046;2024-01-11T09:40:18;101630.56;;;0.81;100.00
76730;BME280;65653;53.106;18.046;2024-01-11T09:42:45;101626.57;;;0.81;100.00
76730;BME280;65653;53.106;18.046;2024-01-11T09:45:16;101623.34;;;0.83;100.00
76730;BME280;65653;53.106;18.046;2024-01-11T09:47:44;101625.06;;;0.86;100.00
76730;BME280;65653;53.106;18.046;2024-01-11T09:50:17;101624.53;;;0.88;100.00
76730;BME280;65653;53.106;18.046;2024-01-11T09:52:48;101624.61;;;0.90;100.00
76730;BME280;65653;53.106;18.046;2024-01-11T09:55:16;101628.50;;;0.93;100.00
76730;BME280;65653;53.106;18.046;2024-01-11T09:57:47;101627.17;;;0.96;100.00
76730;BME280;65653;53.106;18.046;2024-01-11T10:00:22;101626.52;;;0.95;100.00
76730;BME280;65653;53.106;18.046;2024-01-11T10:02:49;101624.51;;;0.95;100.00
76730;BME280;65653;53.106;18.046;2024-01-11T10:05:17;101624.42;;;1.01;100.00
76730;BME280;65653;53.106;18.046;2024-01-11T10:07:44;101623.27;;;1.06;100.00
76730;BME280;65653;53.106;18.046;2024-01-11T10:10:12;101613.05;;;1.06;100.00
76730;BME280;65653;53.106;18.046;2024-01-11T10:12:42;101613.05;;;1.06;100.00
76730;BME280;65653;53.106;18.046;2024-01-11T10:15:09;101616.24;;;1.14;100.00
76730;BME280;65653;53.106;18.046;2024-01-11T10:17:43;101618.28;;;1.23;100.00
76730;BME280;65653;53.106;18.046;2024-01-11T10:20:13;101615.68;;;1.28;100.00
76730;BME280;65653;53.106;18.046;2024-01-11T10:22:41;101618.40;;;1.30;100.00
76730;BME280;65653;53.106;18.046;2024-01-11T10:25:09;101615.46;;;1.28;100.00
76730;BME280;65653;53.106;18.046;2024-01-11T10:27:43;101620.04;;;1.26;100.00
76730;BME280;65653;53.106;18.046;2024-01-11T10:30:12;101620.88;;;1.24;100.00
76730;BME280;65653;53.106;18.046;2024-01-11T10:32:47;101614.54;;;1.22;100.00
76730;BME280;65653;53.106;18.046;2024-01-11T10:35:14;101612.15;;;1.22;100.00
76730;BME280;65653;53.106;18.046;2024-01-11T10:37:40;101608.69;;;1.22;100.00
76730;BME280;65653;53.106;18.046;2024-01-11T10:40:08;101605.34;;;1.19;100.00
76730;BME280;65653;53.106;18.046;2024-01-11T10:42:43;101605.63;;;1.15;100.00
76730;BME280;65653;53.106;18.046;2024-01-11T10:45:18;101608.80;;;1.12;100.00
76730;BME280;65653;53.106;18.046;2024-01-11T10:47:55;101605.95;;;1.09;100.00
76730;BME280;65653;53.106;18.046;2024-01-11T10:50:24;101606.41;;;1.08;100.00
76730;BME280;65653;53.106;18.046;2024-01-11T10:55:50;101609.36;;;1.14;100.00
76730;BME280;65653;53.106;18.046;2024-01-11T10:58:18;101615.14;;;1.19;100.00
76730;BME280;65653;53.106;18.046;2024-01-11T11:00:46;101620.28;;;1.22;100.00
76730;BME280;65653;53.106;18.046;2024-01-11T11:03:15;101619.18;;;1.25;100.00
76730;BME280;65653;53.106;18.046;2024-01-11T11:05:43;101614.56;;;1.26;100.00
76730;BME280;65653;53.106;18.046;2024-01-11T11:08:10;101615.15;;;1.27;100.00
76730;BME280;65653;53.106;18.046;2024-01-11T11:10:38;101613.19;;;1.31;100.00
76730;BME280;65653;53.106;18.046;2024-01-11T11:13:08;101605.09;;;1.35;100.00
76730;BME280;65653;53.106;18.046;2024-01-11T11:15:36;101600.45;;;1.36;100.00
76730;BME280;65653;53.106;18.046;2024-01-11T11:18:04;101596.83;;;1.38;100.00
76730;BME280;65653;53.106;18.046;2024-01-11T11:20:32;101590.42;;;1.41;100.00
76730;BME280;65653;53.106;18.046;2024-01-11T11:23:06;101578.26;;;1.42;100.00
76730;BME280;65653;53.106;18.046;2024-01-11T11:25:33;101569.96;;;1.46;100.00
76730;BME280;65653;53.106;18.046;2024-01-11T11:28:00;101561.83;;;1.48;100.00
76730;BME280;65653;53.106;18.046;2024-01-11T11:30:37;101558.88;;;1.50;100.00
76730;BME280;65653;53.106;18.046;2024-01-11T11:33:16;101560.80;;;1.54;100.00
76730;BME280;65653;53.106;18.046;2024-01-11T11:35:46;101556.84;;;1.55;100.00
76730;BME280;65653;53.106;18.046;2024-01-11T11:38:26;101557.30;;;1.56;100.00
76730;BME280;65653;53.106;18.046;2024-01-11T11:40:56;101562.87;;;1.55;100.00
76730;BME280;65653;53.106;18.046;2024-01-11T11:43:23;101559.43;;;1.54;100.00
76730;BME280;65653;53.106;18.046;2024-01-11T11:45:50;101556.83;;;1.53;100.00
76730;BME280;65653;53.106;18.046;2024-01-11T11:51:06;101555.36;;;1.51;100.00
76730;BME280;65653;53.106;18.046;2024-01-11T11:53:33;101560.91;;;1.50;100.00
76730;BME280;65653;53.106;18.046;2024-01-11T11:56:01;101560.80;;;1.49;100.00
76730;BME280;65653;53.106;18.046;2024-01-11T11:58:28;101560.92;;;1.50;100.00
76730;BME280;65653;53.106;18.046;2024-01-11T12:00:57;101556.52;;;1.50;100.00
76730;BME280;65653;53.106;18.046;2024-01-11T12:03:29;101551.58;;;1.53;100.00
76730;BME280;65653;53.106;18.046;2024-01-11T12:05:57;101545.69;;;1.51;100.00
76730;BME280;65653;53.106;18.046;2024-01-11T12:08:24;101542.42;;;1.54;100.00
76730;BME280;65653;53.106;18.046;2024-01-11T12:10:51;101540.05;;;1.56;100.00
76730;BME280;65653;53.106;18.046;2024-01-11T12:13:18;101537.46;;;1.56;100.00
76730;BME280;65653;53.106;18.046;2024-01-11T12:15:45;101535.10;;;1.58;100.00
76730;BME280;65653;53.106;18.046;2024-01-11T12:18:12;101533.33;;;1.62;100.00
76730;BME280;65653;53.106;18.046;2024-01-11T12:20:39;101527.70;;;1.64;100.00
76730;BME280;65653;53.106;18.046;2024-01-11T12:23:06;101518.52;;;1.69;100.00
76730;BME280;65653;53.106;18.046;2024-01-11T12:25:33;101523.33;;;1.70;100.00
76730;BME280;65653;53.106;18.046;2024-01-11T12:27:59;101519.97;;;1.73;100.00
76730;BME280;65653;53.106;18.046;2024-01-11T12:30:26;101516.83;;;1.70;100.00
76730;BME280;65653;53.106;18.046;2024-01-11T12:32:54;101517.26;;;1.67;100.00
76730;BME280;65653;53.106;18.046;2024-01-11T12:35:21;101510.27;;;1.66;100.00
76730;BME280;65653;53.106;18.046;2024-01-11T12:38:00;101503.70;;;1.64;100.00
76730;BME280;65653;53.106;18.046;2024-01-11T12:40:27;101506.76;;;1.68;100.00